createdAt,value
2023-01-19T00:00:06.153Z,53.75
2023-01-19T00:02:54.953Z,54.01
2023-01-19T00:05:22.116Z,53.98
2023-01-19T00:07:49.261Z,54.02
2023-01-19T00:10:16.384Z,54.10
2023-01-19T00:12:43.481Z,54.12
2023-01-19T00:15:10.821Z,54.18
2023-01-19T00:17:40.938Z,54.03
2023-01-19T00:20:09.478Z,54.34
2023-01-19T00:22:36.591Z,54.38
2023-01-19T00:25:03.774Z,54.28
2023-01-19T00:27:34.894Z,54.49
2023-01-19T00:30:02.244Z,54.26
2023-01-19T00:32:29.352Z,54.15
2023-01-19T00:34:56.140Z,54.46
2023-01-19T00:37:23.316Z,54.27
2023-01-19T00:39:50.167Z,54.34
2023-01-19T00:42:35.587Z,54.41
2023-01-19T00:45:02.344Z,54.36
2023-01-19T00:47:29.478Z,54.19
2023-01-19T00:49:56.479Z,54.26
2023-01-19T00:52:23.496Z,54.33
2023-01-19T00:54:50.315Z,54.09
2023-01-19T00:57:19.177Z,54.13
2023-01-19T00:59:45.934Z,54.14
2023-01-19T01:02:13.240Z,53.94
2023-01-19T01:04:40.137Z,54.31
2023-01-19T01:07:07.253Z,53.99
2023-01-19T01:09:34.004Z,54.03
2023-01-19T01:12:01.140Z,54.30
2023-01-19T01:14:27.953Z,54.18
2023-01-19T01:16:55.165Z,54.05
2023-01-19T01:19:21.956Z,53.92
2023-01-19T01:21:49.119Z,54.14
2023-01-19T01:24:16.349Z,54.48
2023-01-19T01:26:43.453Z,54.27
2023-01-19T01:29:10.253Z,54.11
2023-01-19T01:31:37.364Z,54.30
2023-01-19T01:34:04.451Z,54.30
2023-01-19T01:36:33.466Z,54.17
2023-01-19T01:39:00.547Z,54.26
2023-01-19T01:41:27.715Z,54.33
2023-01-19T01:43:58.662Z,54.35
2023-01-19T01:46:26.521Z,54.27
2023-01-19T01:49:13.819Z,54.37
2023-01-19T01:51:42.105Z,54.38
2023-01-19T01:54:19.009Z,54.28
2023-01-19T01:56:51.514Z,54.25
2023-01-19T01:59:29.349Z,54.34
2023-01-19T02:02:16.064Z,54.51
2023-01-19T02:04:54.279Z,54.25
2023-01-19T02:07:48.842Z,54.62
2023-01-19T02:10:34.160Z,54.33
2023-01-19T02:13:22.425Z,54.43
2023-01-19T02:15:51.055Z,54.42
2023-01-19T02:18:18.840Z,54.23
2023-01-19T02:20:53.870Z,54.45
2023-01-19T02:23:27.298Z,54.58
2023-01-19T02:25:54.047Z,54.36
2023-01-19T02:28:21.195Z,54.62
2023-01-19T02:30:47.948Z,54.38
2023-01-19T02:33:15.057Z,54.66
2023-01-19T02:35:41.890Z,54.86
2023-01-19T02:38:08.989Z,54.82
2023-01-19T02:40:35.798Z,54.41
2023-01-19T02:43:03.410Z,54.44
2023-01-19T02:45:30.337Z,54.60
2023-01-19T02:47:57.397Z,54.28
2023-01-19T02:50:39.426Z,54.33
2023-01-19T02:53:14.370Z,54.35
2023-01-19T02:55:41.156Z,54.62
2023-01-19T02:58:12.046Z,54.60
2023-01-19T03:00:52.418Z,54.80
2023-01-19T03:03:27.774Z,54.50
2023-01-19T03:06:14.845Z,54.69
2023-01-19T03:08:48.000Z,54.46
2023-01-19T03:11:15.024Z,54.49
2023-01-19T03:13:44.025Z,54.76
2023-01-19T03:16:29.738Z,54.80
2023-01-19T03:19:00.062Z,54.62
2023-01-19T03:21:27.618Z,54.52
2023-01-19T03:23:55.997Z,54.68
2023-01-19T03:26:26.250Z,54.55
2023-01-19T03:28:53.360Z,54.66
2023-01-19T03:31:22.969Z,54.66
2023-01-19T03:33:51.958Z,54.67
2023-01-19T03:36:22.918Z,54.63
2023-01-19T03:38:50.206Z,54.67
2023-01-19T03:41:17.867Z,54.65
2023-01-19T03:43:44.949Z,54.61
2023-01-19T03:46:11.820Z,54.83
2023-01-19T03:48:39.001Z,54.67
2023-01-19T03:51:06.775Z,54.50
2023-01-19T03:53:33.893Z,54.66
2023-01-19T03:56:00.725Z,54.73
2023-01-19T03:58:28.354Z,54.54
2023-01-19T04:00:55.228Z,54.68
2023-01-19T04:03:22.309Z,54.51
2023-01-19T04:05:49.331Z,54.70
2023-01-19T04:08:16.449Z,54.65
2023-01-19T04:10:43.220Z,54.70
2023-01-19T04:13:10.568Z,54.40
2023-01-19T04:15:37.387Z,54.80
2023-01-19T04:18:05.407Z,54.61
2023-01-19T04:20:32.152Z,54.74
2023-01-19T04:23:00.059Z,54.75
2023-01-19T04:25:27.908Z,54.46
2023-01-19T04:27:55.273Z,54.92
2023-01-19T04:30:22.684Z,54.38
2023-01-19T04:32:49.811Z,54.69
2023-01-19T04:35:17.054Z,54.61
2023-01-19T04:37:45.056Z,54.60
2023-01-19T04:40:12.205Z,54.70
2023-01-19T04:42:39.344Z,54.65
2023-01-19T04:45:06.543Z,54.45
2023-01-19T04:47:33.656Z,54.74
2023-01-19T04:50:00.376Z,54.78
2023-01-19T04:52:35.090Z,54.50
2023-01-19T04:55:02.975Z,54.80
2023-01-19T04:57:30.485Z,54.58
2023-01-19T04:59:57.848Z,54.84
2023-01-19T05:02:25.164Z,54.75
2023-01-19T05:04:52.026Z,54.78
2023-01-19T05:07:19.114Z,54.56
2023-01-19T05:09:45.838Z,54.80
2023-01-19T05:12:12.887Z,55.05
2023-01-19T05:14:39.635Z,54.98
2023-01-19T05:17:06.727Z,55.02
2023-01-19T05:19:33.476Z,54.81
2023-01-19T05:22:00.527Z,54.97
2023-01-19T05:24:27.251Z,55.01
2023-01-19T05:26:54.344Z,54.78
2023-01-19T05:29:21.183Z,55.01
2023-01-19T05:31:48.253Z,54.71
2023-01-19T05:34:15.305Z,54.68
2023-01-19T05:36:42.433Z,55.03
2023-01-19T05:39:09.231Z,54.62
2023-01-19T05:41:36.268Z,54.81
2023-01-19T05:44:03.095Z,54.87
2023-01-19T05:46:30.170Z,55.01
2023-01-19T05:48:57.018Z,55.08
2023-01-19T05:51:24.131Z,54.87
2023-01-19T05:53:50.864Z,54.93
2023-01-19T05:56:17.936Z,54.93
2023-01-19T05:58:44.658Z,55.01
2023-01-19T06:01:11.772Z,54.70
2023-01-19T06:03:39.600Z,54.85
2023-01-19T06:06:06.992Z,54.85
2023-01-19T06:08:33.808Z,54.49
2023-01-19T06:11:00.899Z,54.65
2023-01-19T06:13:27.698Z,54.70
2023-01-19T06:15:58.927Z,54.53
2023-01-19T06:18:25.867Z,54.57
2023-01-19T06:20:58.571Z,54.62
2023-01-19T06:23:26.430Z,54.92
2023-01-19T06:25:53.480Z,54.75
2023-01-19T06:28:20.259Z,54.42
2023-01-19T06:30:50.924Z,55.05
2023-01-19T06:33:17.999Z,54.43
2023-01-19T06:35:48.314Z,54.58
2023-01-19T06:38:15.142Z,54.74
2023-01-19T06:40:42.224Z,54.62
2023-01-19T06:43:09.158Z,54.51
2023-01-19T06:45:36.559Z,54.52
2023-01-19T06:48:04.237Z,54.51
2023-01-19T06:50:31.375Z,54.61
2023-01-19T06:52:58.689Z,54.27
2023-01-19T06:55:27.689Z,54.68
2023-01-19T06:57:58.916Z,54.57
2023-01-19T07:00:26.345Z,54.33
2023-01-19T07:02:53.161Z,54.21
2023-01-19T07:05:22.106Z,54.45
2023-01-19T07:07:53.170Z,54.34
2023-01-19T07:10:20.213Z,54.15
2023-01-19T07:12:47.498Z,54.15
2023-01-19T07:15:15.688Z,54.41
2023-01-19T07:17:42.675Z,54.20
2023-01-19T07:20:13.012Z,54.62
2023-01-19T07:22:41.317Z,54.65
2023-01-19T07:25:08.836Z,54.43
2023-01-19T07:27:35.643Z,54.46
2023-01-19T07:30:02.783Z,54.50
2023-01-19T07:32:29.546Z,54.27
2023-01-19T07:34:56.840Z,54.18
2023-01-19T07:37:23.708Z,54.51
2023-01-19T07:39:50.840Z,54.63
2023-01-19T07:42:17.800Z,54.73
2023-01-19T07:44:44.842Z,54.56
2023-01-19T07:47:12.748Z,54.33
2023-01-19T07:49:40.128Z,54.17
2023-01-19T07:52:07.062Z,54.51
2023-01-19T07:54:34.418Z,54.61
2023-01-19T07:57:01.170Z,54.22
2023-01-19T07:59:30.305Z,54.63
2023-01-19T08:01:59.565Z,54.60
2023-01-19T08:04:27.378Z,54.28
2023-01-19T08:06:54.432Z,54.41
2023-01-19T08:09:21.660Z,54.45
2023-01-19T08:11:48.413Z,54.03
2023-01-19T08:14:15.508Z,54.24
2023-01-19T08:16:42.253Z,54.38
2023-01-19T08:19:09.426Z,54.53
2023-01-19T08:21:36.457Z,54.13
2023-01-19T08:24:03.613Z,54.22
2023-01-19T08:26:32.345Z,54.02
2023-01-19T08:29:01.682Z,54.44
2023-01-19T08:31:28.661Z,53.99
2023-01-19T08:33:55.911Z,54.21
2023-01-19T08:36:23.868Z,54.37
2023-01-19T08:38:51.084Z,54.17
2023-01-19T08:41:17.855Z,54.38
2023-01-19T08:43:45.530Z,54.18
2023-01-19T08:46:12.507Z,54.28
2023-01-19T08:48:40.072Z,54.08
2023-01-19T08:51:06.937Z,54.32
2023-01-19T08:53:34.718Z,54.32
2023-01-19T08:56:02.320Z,54.21
2023-01-19T08:58:29.432Z,54.11
2023-01-19T09:00:56.310Z,54.13
2023-01-19T09:03:23.462Z,54.31
2023-01-19T09:05:50.432Z,54.23
2023-01-19T09:08:17.544Z,54.00
2023-01-19T09:10:46.302Z,54.35
2023-01-19T09:13:13.508Z,54.45
2023-01-19T09:15:40.459Z,54.35
2023-01-19T09:18:13.617Z,54.47
2023-01-19T09:20:44.461Z,54.55
2023-01-19T09:23:12.504Z,54.08
2023-01-19T09:25:39.826Z,53.83
2023-01-19T09:28:07.851Z,54.31
2023-01-19T09:30:36.758Z,54.11
2023-01-19T09:33:06.348Z,53.95
2023-01-19T09:35:36.988Z,54.19
2023-01-19T09:38:04.285Z,54.19
2023-01-19T09:40:31.177Z,54.03
2023-01-19T09:43:05.024Z,53.92
2023-01-19T09:45:36.186Z,53.92
2023-01-19T09:48:16.031Z,54.08
2023-01-19T09:50:47.455Z,53.93
2023-01-19T09:53:17.910Z,54.17
2023-01-19T09:55:44.794Z,53.79
2023-01-19T09:58:16.469Z,53.86
2023-01-19T10:00:44.643Z,53.79
2023-01-19T10:03:15.677Z,54.22
2023-01-19T10:05:49.520Z,54.00
2023-01-19T10:08:18.623Z,53.91
2023-01-19T10:10:53.259Z,53.76
2023-01-19T10:13:39.047Z,53.55
2023-01-19T10:16:33.965Z,53.66
2023-01-19T10:19:03.194Z,53.61
2023-01-19T10:21:33.750Z,53.48
2023-01-19T10:24:20.551Z,53.81
2023-01-19T10:26:52.548Z,53.56
2023-01-19T10:29:42.257Z,53.50
2023-01-19T10:32:17.073Z,53.77
2023-01-19T10:34:44.256Z,53.83
2023-01-19T10:37:31.880Z,53.47
2023-01-19T10:40:19.925Z,53.65
2023-01-19T10:42:46.901Z,53.32
2023-01-19T10:45:24.528Z,53.57
2023-01-19T10:47:52.802Z,53.45
2023-01-19T10:50:30.797Z,53.58
2023-01-19T10:52:59.617Z,53.31
2023-01-19T10:55:34.254Z,53.37
2023-01-19T10:58:01.460Z,53.32
2023-01-19T11:00:30.030Z,53.29
2023-01-19T11:02:56.916Z,53.53
2023-01-19T11:05:28.702Z,53.60
2023-01-19T11:07:56.303Z,53.53
2023-01-19T11:10:25.005Z,53.60
2023-01-19T11:13:12.545Z,53.83
2023-01-19T11:15:49.159Z,53.40
2023-01-19T11:18:35.994Z,53.61
2023-01-19T11:21:14.009Z,53.32
2023-01-19T11:23:51.265Z,53.17
2023-01-19T11:26:25.481Z,53.33
2023-01-19T11:28:54.638Z,53.67
2023-01-19T11:31:33.199Z,53.41
2023-01-19T11:34:05.103Z,53.73
2023-01-19T11:36:34.410Z,53.37
2023-01-19T11:39:15.931Z,53.24
2023-01-19T11:41:43.548Z,53.29
2023-01-19T11:44:29.205Z,53.52
2023-01-19T11:47:01.179Z,53.36
2023-01-19T11:49:46.680Z,53.38
2023-01-19T11:52:43.923Z,53.27
2023-01-19T11:55:17.628Z,53.27
2023-01-19T11:57:49.260Z,53.52
2023-01-19T12:00:36.490Z,53.43
2023-01-19T12:03:14.480Z,53.04
2023-01-19T12:05:42.432Z,53.48
2023-01-19T12:08:40.847Z,53.23
2023-01-19T12:11:08.785Z,53.18
2023-01-19T12:13:35.929Z,53.16
2023-01-19T12:16:12.209Z,53.13
2023-01-19T12:18:45.097Z,53.05
2023-01-19T12:21:12.219Z,53.01
2023-01-19T12:23:54.670Z,53.61
2023-01-19T12:26:36.865Z,53.55
2023-01-19T12:29:24.269Z,53.22
2023-01-19T12:32:21.951Z,53.36
2023-01-19T12:34:49.901Z,53.10
2023-01-19T12:37:36.274Z,53.11
2023-01-19T12:40:22.045Z,53.29
2023-01-19T12:43:01.829Z,53.45
2023-01-19T12:45:33.059Z,53.01
2023-01-19T12:47:59.887Z,53.12
2023-01-19T12:50:29.297Z,52.97
2023-01-19T12:52:58.462Z,52.86
2023-01-19T12:55:25.659Z,53.06
2023-01-19T12:58:07.743Z,53.37
2023-01-19T13:00:38.925Z,53.24
2023-01-19T13:03:17.966Z,52.99
2023-01-19T13:05:45.008Z,52.94
2023-01-19T13:08:12.631Z,53.37
2023-01-19T13:11:09.688Z,53.46
2023-01-19T13:13:37.172Z,53.17
2023-01-19T13:16:19.805Z,53.37
2023-01-19T13:18:53.431Z,52.97
2023-01-19T13:21:34.155Z,53.33
2023-01-19T13:24:05.216Z,53.09
2023-01-19T13:26:33.884Z,52.98
2023-01-19T13:29:15.823Z,53.17
2023-01-19T13:31:44.643Z,53.18
2023-01-19T13:34:16.958Z,53.43
2023-01-19T13:36:45.574Z,53.31
2023-01-19T13:39:17.682Z,52.84
2023-01-19T13:41:45.595Z,53.21
2023-01-19T13:44:19.294Z,53.21
2023-01-19T13:46:47.093Z,53.07
2023-01-19T13:49:19.996Z,53.26
2023-01-19T13:52:03.936Z,52.98
2023-01-19T13:54:30.747Z,52.88
2023-01-19T13:56:57.809Z,52.73
2023-01-19T13:59:24.550Z,52.97
2023-01-19T14:01:54.252Z,53.17
2023-01-19T14:04:32.194Z,53.30
2023-01-19T14:07:04.423Z,53.23
2023-01-19T14:09:31.308Z,53.39
2023-01-19T14:12:11.893Z,53.11
2023-01-19T14:14:38.718Z,52.85
2023-01-19T14:17:17.880Z,53.11
2023-01-19T14:19:48.104Z,53.15
2023-01-19T14:22:15.316Z,53.07
2023-01-19T14:24:42.123Z,53.17
2023-01-19T14:27:20.507Z,53.28
2023-01-19T14:29:50.002Z,53.38
2023-01-19T14:32:18.178Z,53.09
2023-01-19T14:34:46.883Z,53.17
2023-01-19T14:37:21.194Z,53.17
2023-01-19T14:40:01.301Z,53.35
2023-01-19T14:42:47.867Z,52.94
2023-01-19T14:45:17.548Z,53.17
2023-01-19T14:47:45.012Z,53.49
2023-01-19T14:50:23.976Z,53.34
2023-01-19T14:53:02.345Z,53.52
2023-01-19T14:55:33.908Z,53.46
2023-01-19T14:58:01.355Z,53.32
2023-01-19T15:00:28.198Z,53.30
2023-01-19T15:02:55.357Z,53.52
2023-01-19T15:05:22.225Z,53.54
2023-01-19T15:07:49.449Z,53.54
2023-01-19T15:10:20.637Z,53.51
2023-01-19T15:12:48.753Z,53.57
2023-01-19T15:15:17.385Z,53.69
2023-01-19T15:17:44.562Z,53.56
2023-01-19T15:20:16.294Z,53.36
2023-01-19T15:22:44.007Z,53.68
2023-01-19T15:25:19.333Z,53.69
2023-01-19T15:27:46.703Z,53.83
2023-01-19T15:30:21.228Z,53.51
2023-01-19T15:32:48.480Z,53.93
2023-01-19T15:35:22.600Z,53.64
2023-01-19T15:37:50.100Z,53.67
2023-01-19T15:40:17.689Z,53.61
2023-01-19T15:42:44.992Z,53.46
2023-01-19T15:45:38.584Z,53.51
2023-01-19T15:48:07.466Z,53.45
2023-01-19T15:50:36.157Z,53.78
2023-01-19T15:53:03.407Z,53.55
2023-01-19T15:55:30.239Z,53.58
2023-01-19T15:58:03.483Z,53.35
2023-01-19T16:00:31.557Z,53.54
2023-01-19T16:02:59.004Z,53.48
2023-01-19T16:05:37.446Z,53.22
2023-01-19T16:08:10.234Z,53.70
2023-01-19T16:10:37.040Z,53.64
2023-01-19T16:13:04.232Z,53.08
2023-01-19T16:15:31.040Z,53.07
2023-01-19T16:17:58.494Z,53.54
2023-01-19T16:20:25.375Z,53.33
2023-01-19T16:22:54.866Z,53.65
2023-01-19T16:25:23.513Z,53.34
2023-01-19T16:27:50.717Z,53.55
2023-01-19T16:30:19.389Z,53.51
2023-01-19T16:32:46.754Z,53.82
2023-01-19T16:35:15.556Z,53.66
2023-01-19T16:37:42.677Z,53.63
2023-01-19T16:40:10.289Z,53.41
2023-01-19T16:42:37.593Z,53.70
2023-01-19T16:45:04.655Z,53.65
2023-01-19T16:47:31.793Z,53.82
2023-01-19T16:49:58.561Z,54.08
2023-01-19T16:52:25.683Z,54.03
2023-01-19T16:54:54.739Z,53.88
2023-01-19T16:57:21.840Z,53.83
2023-01-19T16:59:50.583Z,54.11
2023-01-19T17:02:18.065Z,53.92
2023-01-19T17:04:44.905Z,53.73
2023-01-19T17:07:11.990Z,53.95
2023-01-19T17:09:39.017Z,53.87
2023-01-19T17:12:09.198Z,54.00
2023-01-19T17:14:37.402Z,53.81
2023-01-19T17:17:05.117Z,53.84
2023-01-19T17:19:31.982Z,53.69
2023-01-19T17:21:59.118Z,54.10
2023-01-19T17:24:25.960Z,53.94
2023-01-19T17:26:53.083Z,53.69
2023-01-19T17:29:19.863Z,53.85
2023-01-19T17:31:47.978Z,53.85
2023-01-19T17:34:14.815Z,53.76
2023-01-19T17:36:41.910Z,53.88
2023-01-19T17:39:11.311Z,54.02
2023-01-19T17:41:38.577Z,53.92
2023-01-19T17:44:05.761Z,53.89
2023-01-19T17:46:35.625Z,53.49
2023-01-19T17:49:03.609Z,53.63
2023-01-19T17:51:30.820Z,54.04
2023-01-19T17:53:57.725Z,54.07
2023-01-19T17:56:29.484Z,53.74
2023-01-19T17:58:57.060Z,53.72
2023-01-19T18:01:25.943Z,53.79
2023-01-19T18:03:53.136Z,53.97
2023-01-19T18:06:20.375Z,53.96
2023-01-19T18:08:47.498Z,53.69
2023-01-19T18:11:15.189Z,53.71
2023-01-19T18:13:42.936Z,54.03
2023-01-19T18:16:14.932Z,54.04
2023-01-19T18:18:42.086Z,53.83
2023-01-19T18:21:10.724Z,54.05
2023-01-19T18:23:37.510Z,53.83
2023-01-19T18:26:13.248Z,53.72
2023-01-19T18:28:39.954Z,53.85
2023-01-19T18:31:12.615Z,54.13
2023-01-19T18:33:39.985Z,53.92
2023-01-19T18:36:07.831Z,53.84
2023-01-19T18:38:34.673Z,53.94
2023-01-19T18:41:05.367Z,53.82
2023-01-19T18:43:32.151Z,54.29
2023-01-19T18:45:59.334Z,53.92
2023-01-19T18:48:26.272Z,54.01
2023-01-19T18:50:53.527Z,53.92
2023-01-19T18:53:20.527Z,54.06
2023-01-19T18:55:56.032Z,54.05
2023-01-19T18:58:23.019Z,54.27
2023-01-19T19:00:50.457Z,54.02
2023-01-19T19:03:17.376Z,54.10
2023-01-19T19:05:44.516Z,53.94
2023-01-19T19:08:11.416Z,54.00
2023-01-19T19:10:40.463Z,53.84
2023-01-19T19:13:07.807Z,53.77
2023-01-19T19:15:34.928Z,54.15
2023-01-19T19:18:01.787Z,54.20
2023-01-19T19:20:28.960Z,54.09
2023-01-19T19:22:56.001Z,53.96
2023-01-19T19:25:23.287Z,54.04
2023-01-19T19:27:51.434Z,54.14
2023-01-19T19:30:19.784Z,54.14
2023-01-19T19:32:59.983Z,54.16
2023-01-19T19:35:27.132Z,54.00
2023-01-19T19:37:57.496Z,54.00
2023-01-19T19:40:25.715Z,54.05
2023-01-19T19:42:52.545Z,53.94
2023-01-19T19:45:19.611Z,54.15
2023-01-19T19:47:46.443Z,53.94
2023-01-19T19:50:14.233Z,54.12
2023-01-19T19:52:41.547Z,54.17
2023-01-19T19:55:09.634Z,54.13
2023-01-19T19:57:36.569Z,53.94
2023-01-19T20:00:05.292Z,54.17
2023-01-19T20:02:32.480Z,54.01
2023-01-19T20:04:59.766Z,54.10
2023-01-19T20:07:26.584Z,53.87
2023-01-19T20:09:55.194Z,54.38
2023-01-19T20:12:22.228Z,53.75
2023-01-19T20:14:49.482Z,53.93
2023-01-19T20:17:16.317Z,54.01
2023-01-19T20:19:45.642Z,54.09
2023-01-19T20:22:12.484Z,53.91
2023-01-19T20:24:39.640Z,54.06
2023-01-19T20:27:06.419Z,53.83
2023-01-19T20:29:33.586Z,53.98
2023-01-19T20:32:00.694Z,53.84
2023-01-19T20:34:32.109Z,54.08
2023-01-19T20:37:00.748Z,54.37
2023-01-19T20:39:30.029Z,54.31
2023-01-19T20:41:56.951Z,54.23
2023-01-19T20:44:25.099Z,54.21
2023-01-19T20:46:52.440Z,54.35
2023-01-19T20:49:19.681Z,54.13
2023-01-19T20:51:46.996Z,53.91
2023-01-19T20:54:16.359Z,54.29
2023-01-19T20:56:43.189Z,54.08
2023-01-19T20:59:10.732Z,54.11
2023-01-19T21:01:37.750Z,53.99
2023-01-19T21:04:05.128Z,54.06
2023-01-19T21:06:32.002Z,53.95
2023-01-19T21:08:59.124Z,54.07
2023-01-19T21:11:26.149Z,53.98
2023-01-19T21:13:56.156Z,54.01
2023-01-19T21:16:24.380Z,54.13
2023-01-19T21:18:51.641Z,54.14
2023-01-19T21:21:29.762Z,54.13
2023-01-19T21:23:57.615Z,54.08
2023-01-19T21:26:24.407Z,54.26
2023-01-19T21:28:51.590Z,54.03
2023-01-19T21:31:18.573Z,54.23
2023-01-19T21:33:45.902Z,53.84
2023-01-19T21:36:12.878Z,54.06
2023-01-19T21:38:39.974Z,54.23
2023-01-19T21:41:08.101Z,54.14
2023-01-19T21:43:36.363Z,53.74
2023-01-19T21:46:11.145Z,54.00
2023-01-19T21:48:38.372Z,54.38
2023-01-19T21:51:05.281Z,54.07
2023-01-19T21:53:32.442Z,53.90
2023-01-19T21:56:00.355Z,54.20
2023-01-19T21:58:27.647Z,54.06
2023-01-19T22:01:06.028Z,53.93
2023-01-19T22:03:33.378Z,54.41
2023-01-19T22:06:10.762Z,54.19
2023-01-19T22:08:38.153Z,54.00
2023-01-19T22:11:09.452Z,54.34
2023-01-19T22:13:38.615Z,54.19
2023-01-19T22:16:10.436Z,54.10
2023-01-19T22:18:38.477Z,54.24
2023-01-19T22:21:09.635Z,54.22
2023-01-19T22:23:36.804Z,54.10
2023-01-19T22:26:04.369Z,54.20
2023-01-19T22:28:31.684Z,54.09
2023-01-19T22:31:09.220Z,54.15
2023-01-19T22:33:36.525Z,54.18
2023-01-19T22:36:10.219Z,54.08
2023-01-19T22:38:39.797Z,53.89
2023-01-19T22:41:19.944Z,54.32
2023-01-19T22:43:47.982Z,54.17
2023-01-19T22:46:21.814Z,54.20
2023-01-19T22:48:49.126Z,54.50
2023-01-19T22:51:16.384Z,54.06
2023-01-19T22:53:43.624Z,54.29
2023-01-19T22:56:17.842Z,54.00
2023-01-19T22:58:45.152Z,54.21
2023-01-19T23:01:17.023Z,54.18
2023-01-19T23:03:44.318Z,54.26
2023-01-19T23:06:16.068Z,54.15
2023-01-19T23:08:43.416Z,54.31
2023-01-19T23:11:12.257Z,53.96
2023-01-19T23:13:39.356Z,54.33
2023-01-19T23:16:06.634Z,54.09
2023-01-19T23:18:33.715Z,54.23
2023-01-19T23:21:11.835Z,54.08
2023-01-19T23:23:38.981Z,54.08
2023-01-19T23:26:07.942Z,54.33
2023-01-19T23:28:36.656Z,54.13
2023-01-19T23:31:23.693Z,54.19
2023-01-19T23:34:07.392Z,54.21
2023-01-19T23:36:35.749Z,53.94
2023-01-19T23:39:04.944Z,54.24
2023-01-19T23:41:33.194Z,54.05
2023-01-19T23:44:00.608Z,54.13
2023-01-19T23:46:27.785Z,53.96
2023-01-19T23:48:54.920Z,54.18
2023-01-19T23:51:26.185Z,54.35
2023-01-19T23:53:53.494Z,54.21
2023-01-19T23:56:22.069Z,54.28
2023-01-19T23:58:56.063Z,53.96
